KRTN/RTN METAR and TAF weather

Enter ICAO airport designator
Station Type Date Time Source
KRTN METAR 2022/06/27 08:19 UTC NOAA

KRTN 270819Z AUTO 23005KT 10SM FEW012 OVC029 12/11 A3049 RMK AO2 T01220111


Station Type Date Time Source
KRTN Decoded METAR 2022/06/27 08:19 UTC NOAA

Raton, Raton Municipal \ Crews Field Airport, NM, United States (KRTN) 36-44-31N 104-39-28W 1939M
Jun 27, 2022 - 04:19 AM EDT / 2022.06.27 0819 UTC
Wind: from the SW (230 degrees) at 6 MPH (5 KT):0
Visibility: 10 mile(s):0
Sky conditions: overcast
Temperature: 54.0 F (12.2 C)
Dew Point: 52.0 F (11.1 C)
Relative Humidity: 92%
Pressure (altimeter): 30.49 in. Hg (1032 hPa)
ob: KRTN 270819Z AUTO 23005KT 10SM FEW012 OVC029 12/11 A3049 RMK AO2 T01220111
cycle: 8

Station Type Date Time Source
KRTN TAF UTC NOAA

Error!

Example: see airport list